Time;durP1;ratioP1;P1;durP2;ratioP2;P2;SDS_P1;SDS_P2;PMS_P1;PMS_P2;Temp;Humidity;BMP_temperature;BMP_pressure;BME280_temperature;BME280_humidity;BME280_pressure;Samples;Min_cycle;Max_cycle;Signal;HPM_P1;HPM_P2
2022/05/03 00:01:04;;;;;;;;;;;17.10;76.60;;;;;;4983104;28;95897;-65
2022/05/03 00:03:39;;;;;;;;;;;17.10;76.90;;;;;;4995813;28;96536;-65
2022/05/03 00:06:14;;;;;;;;;;;17.10;77.30;;;;;;4996194;28;95928;-65
2022/05/03 00:08:46;;;;;;;;;;;17.20;77.40;;;;;;4997075;28;95831;-69
2022/05/03 00:11:26;;;;;;;;;;;17.30;77.50;;;;;;4998426;28;96649;-62
2022/05/03 00:14:05;;;;;;;;;;;17.30;77.40;;;;;;4978754;28;95793;-66
2022/05/03 00:16:36;;;;;;;;;;;17.30;77.40;;;;;;4992615;28;96427;-63
2022/05/03 00:19:07;;;;;;;;;;;17.30;77.40;;;;;;4977736;28;96570;-62
2022/05/03 00:21:38;;;;;;;;;;;17.40;77.40;;;;;;4994417;28;95897;-61
2022/05/03 00:24:09;;;;;;;;;;;17.30;77.40;;;;;;4996788;28;95875;-63
2022/05/03 00:26:40;;;;;;;;;;;17.50;77.50;;;;;;4995309;28;96036;-62
2022/05/03 00:29:11;;;;;;;;;;;17.50;77.50;;;;;;4978736;28;98215;-59
2022/05/03 00:31:43;;;;;;;;;;;17.50;77.40;;;;;;4988572;28;95965;-63
2022/05/03 00:34:15;;;;;;;;;;;17.60;77.40;;;;;;4975035;28;96963;-60
2022/05/03 00:36:46;;;;;;;;;;;17.70;77.40;;;;;;4989807;28;98093;-62
2022/05/03 00:39:17;;;;;;;;;;;17.70;77.30;;;;;;4992486;28;96455;-67
2022/05/03 00:42:08;;;;;;;;;;;17.80;77.20;;;;;;4996432;28;97459;-64
2022/05/03 00:44:58;;;;;;;;;;;17.90;77.10;;;;;;4979560;28;96342;-59
2022/05/03 00:47:35;;;;;;;;;;;17.90;77.00;;;;;;4979633;28;96005;-61
2022/05/03 00:50:08;;;;;;;;;;;18.00;76.80;;;;;;4997326;28;95943;-65
2022/05/03 00:52:45;;;;;;;;;;;18.10;74.60;;;;;;4998498;28;98471;-65
2022/05/03 00:55:16;;;;;;;;;;;18.10;76.80;;;;;;5000571;28;96111;-65
2022/05/03 00:57:46;;;;;;;;;;;18.10;76.70;;;;;;5000770;28;95780;-63
2022/05/03 01:00:18;;;;;;;;;;;18.20;76.80;;;;;;4984876;28;97168;-65
2022/05/03 01:03:08;;;;;;;;;;;18.30;76.70;;;;;;4998889;28;96735;-60
2022/05/03 01:05:57;;;;;;;;;;;18.30;76.70;;;;;;4998613;28;96321;-65
2022/05/03 01:08:34;;;;;;;;;;;18.40;76.60;;;;;;4997595;28;95797;-63
2022/05/03 01:11:18;;;;;;;;;;;18.40;76.60;;;;;;4980058;28;97933;-62
2022/05/03 01:13:53;;;;;;;;;;;18.50;76.70;;;;;;4998152;28;95773;-62
2022/05/03 01:16:29;;;;;;;;;;;18.60;76.80;;;;;;4994412;28;96104;-63
2022/05/03 01:19:25;;;;;;;;;;;18.60;76.80;;;;;;4999097;28;95748;-67
2022/05/03 01:22:09;;;;;;;;;;;18.60;77.00;;;;;;4995163;28;96402;-56
2022/05/03 01:24:39;;;;;;;;;;;18.70;77.00;;;;;;4996768;28;95896;-56
2022/05/03 01:27:24;;;;;;;;;;;18.80;77.10;;;;;;4995031;28;95736;-62
2022/05/03 01:29:58;;;;;;;;;;;18.90;77.10;;;;;;4997178;28;95401;-58
2022/05/03 01:32:32;;;;;;;;;;;19.00;77.20;;;;;;4964883;28;95884;-62
2022/05/03 01:35:06;;;;;;;;;;;19.10;77.20;;;;;;4958698;28;96145;-59
2022/05/03 01:37:56;;;;;;;;;;;19.20;77.10;;;;;;4966082;28;95476;-65
2022/05/03 01:40:30;;;;;;;;;;;19.40;77.20;;;;;;4968622;28;95878;-64
2022/05/03 01:43:20;;;;;;;;;;;19.50;76.80;;;;;;4967334;28;96741;-62
2022/05/03 01:46:11;;;;;;;;;;;19.60;76.60;;;;;;4964200;28;95876;-62
2022/05/03 01:51:43;;;;;;;;;;;19.90;76.20;;;;;;4970361;28;95717;-62
2022/05/03 01:54:32;;;;;;;;;;;19.90;75.90;;;;;;4970029;28;96435;-60
2022/05/03 01:57:07;;;;;;;;;;;20.10;76.00;;;;;;4968080;28;95455;-58
2022/05/03 01:59:56;;;;;;;;;;;20.20;76.00;;;;;;4967108;28;96362;-60
2022/05/03 02:02:42;;;;;;;;;;;20.20;75.90;;;;;;4990148;28;95916;-60
2022/05/03 02:05:33;;;;;;;;;;;20.40;75.90;;;;;;4980638;28;96599;-59
2022/05/03 02:08:03;;;;;;;;;;;20.50;75.60;;;;;;4995155;28;95476;-66
2022/05/03 02:10:42;;;;;;;;;;;20.60;75.50;;;;;;4996696;28;96483;-59
2022/05/03 02:13:28;;;;;;;;;;;20.80;74.40;;;;;;4998469;28;95941;-62
2022/05/03 02:16:07;;;;;;;;;;;20.60;71.30;;;;;;4991638;28;96066;-58
2022/05/03 02:18:48;;;;;;;;;;;20.50;71.30;;;;;;4995689;28;95907;-64
2022/05/03 02:21:41;;;;;;;;;;;20.50;71.80;;;;;;4998470;28;95666;-60
2022/05/03 02:24:22;;;;;;;;;;;20.50;71.50;;;;;;4991749;28;95901;-61
2022/05/03 02:27:00;;;;;;;;;;;20.50;69.80;;;;;;4994619;28;96221;-61
2022/05/03 02:29:38;;;;;;;;;;;20.50;71.70;;;;;;4995548;28;96132;-61
2022/05/03 02:32:14;;;;;;;;;;;20.50;71.80;;;;;;4986383;28;95677;-62
2022/05/03 02:34:44;;;;;;;;;;;20.50;70.90;;;;;;4977580;28;96508;-62
2022/05/03 02:37:17;;;;;;;;;;;20.50;70.70;;;;;;4976974;28;96604;-62
2022/05/03 02:39:48;;;;;;;;;;;20.40;68.80;;;;;;4993937;28;95439;-62
2022/05/03 02:42:20;;;;;;;;;;;20.40;70.60;;;;;;4996417;28;95395;-62
2022/05/03 02:44:54;;;;;;;;;;;20.40;70.80;;;;;;4998474;28;95824;-62
2022/05/03 02:47:37;;;;;;;;;;;20.50;70.80;;;;;;4958124;28;96359;-62
2022/05/03 02:50:14;;;;;;;;;;;20.50;70.10;;;;;;4997168;28;95737;-60
2022/05/03 02:52:54;;;;;;;;;;;20.40;67.90;;;;;;4998383;28;95678;-60
2022/05/03 02:55:42;;;;;;;;;;;20.50;70.00;;;;;;4999448;28;96002;-65
2022/05/03 02:58:31;;;;;;;;;;;20.50;69.50;;;;;;4996509;28;97108;-62
2022/05/03 03:04:05;;;;;;;;;;;20.70;69.30;;;;;;4967941;28;95731;-60
2022/05/03 03:06:37;;;;;;;;;;;20.80;69.90;;;;;;4966337;28;95954;-61
2022/05/03 03:09:07;;;;;;;;;;;20.90;70.10;;;;;;4965654;28;97870;-61
2022/05/03 03:11:56;;;;;;;;;;;21.20;70.10;;;;;;4966289;28;96644;-62
2022/05/03 03:14:31;;;;;;;;;;;21.20;70.20;;;;;;4963479;28;95890;-63
2022/05/03 03:17:06;;;;;;;;;;;21.40;70.20;;;;;;4961736;28;96244;-59
2022/05/03 03:19:47;;;;;;;;;;;21.50;70.20;;;;;;4966069;28;96564;-63
2022/05/03 03:22:20;;;;;;;;;;;21.60;70.50;;;;;;4965102;28;96781;-58
2022/05/03 03:24:50;;;;;;;;;;;21.70;69.40;;;;;;4963995;28;96078;-62
2022/05/03 03:27:22;;;;;;;;;;;21.80;70.40;;;;;;4965017;28;96026;-60
2022/05/03 03:29:55;;;;;;;;;;;21.90;70.40;;;;;;4962867;28;95950;-60
2022/05/03 03:32:27;;;;;;;;;;;22.10;68.40;;;;;;4956731;28;97391;-61
2022/05/03 03:34:59;;;;;;;;;;;22.10;69.00;;;;;;4960942;28;95352;-54
2022/05/03 03:37:30;;;;;;;;;;;22.00;58.50;;;;;;4964964;28;96027;-60
2022/05/03 03:40:01;;;;;;;;;;;21.90;60.70;;;;;;4963371;28;95768;-61
2022/05/03 03:42:34;;;;;;;;;;;21.80;58.60;;;;;;4964268;28;95866;-61
2022/05/03 03:45:07;;;;;;;;;;;21.90;59.90;;;;;;4964959;28;95823;-60
2022/05/03 03:47:39;;;;;;;;;;;22.10;59.80;;;;;;4959567;28;96583;-59
2022/05/03 03:50:10;;;;;;;;;;;22.20;57.90;;;;;;4965231;28;96361;-60
2022/05/03 03:52:42;;;;;;;;;;;22.10;57.50;;;;;;4965425;28;96736;-62
2022/05/03 03:55:13;;;;;;;;;;;22.10;57.10;;;;;;4963052;28;96482;-63
2022/05/03 03:57:43;;;;;;;;;;;22.10;55.80;;;;;;4963040;28;95965;-63
2022/05/03 04:00:15;;;;;;;;;;;21.60;54.90;;;;;;4959764;28;96852;-63
2022/05/03 04:02:46;;;;;;;;;;;21.70;56.80;;;;;;4984645;28;102129;-64
2022/05/03 04:05:21;;;;;;;;;;;21.70;57.20;;;;;;4987088;28;96115;-63
2022/05/03 04:07:51;;;;;;;;;;;21.80;56.80;;;;;;4987639;28;95892;-63
2022/05/03 04:10:21;;;;;;;;;;;21.80;56.50;;;;;;4985436;28;95769;-62
2022/05/03 04:12:50;;;;;;;;;;;22.00;55.40;;;;;;4986111;28;96759;-61
2022/05/03 04:15:20;;;;;;;;;;;22.00;55.60;;;;;;4981675;28;95848;-63
2022/05/03 04:17:50;;;;;;;;;;;22.20;56.90;;;;;;4985031;28;95788;-62
2022/05/03 04:20:21;;;;;;;;;;;22.00;53.70;;;;;;4984083;28;96456;-60
2022/05/03 04:22:50;;;;;;;;;;;22.10;55.30;;;;;;4986412;28;96796;-60
2022/05/03 04:25:20;;;;;;;;;;;22.20;57.40;;;;;;4987014;28;96019;-61
2022/05/03 04:27:51;;;;;;;;;;;22.20;54.60;;;;;;4988499;28;96490;-64
2022/05/03 04:30:22;;;;;;;;;;;22.20;54.50;;;;;;4981804;28;96792;-61
2022/05/03 04:32:53;;;;;;;;;;;22.20;53.70;;;;;;4982309;28;96039;-65
2022/05/03 04:35:23;;;;;;;;;;;22.10;54.00;;;;;;4981686;28;98191;-63
2022/05/03 04:37:55;;;;;;;;;;;22.00;54.60;;;;;;4988537;28;95903;-61
2022/05/03 04:40:24;;;;;;;;;;;21.90;53.70;;;;;;4988375;28;96522;-60
2022/05/03 04:42:56;;;;;;;;;;;21.70;53.10;;;;;;4988884;28;95648;-61
2022/05/03 04:45:28;;;;;;;;;;;21.50;54.50;;;;;;4983944;28;95818;-64
2022/05/03 04:47:58;;;;;;;;;;;21.60;54.90;;;;;;4989156;28;95791;-61
2022/05/03 04:50:33;;;;;;;;;;;21.80;52.80;;;;;;4988711;28;95831;-60
2022/05/03 04:53:03;;;;;;;;;;;21.80;55.00;;;;;;4990755;28;95723;-62
2022/05/03 04:55:38;;;;;;;;;;;21.90;53.20;;;;;;4991242;28;95909;-60
2022/05/03 04:58:09;;;;;;;;;;;22.00;53.70;;;;;;4988082;28;95741;-59
2022/05/03 05:00:40;;;;;;;;;;;22.00;53.80;;;;;;4981208;28;96100;-62
2022/05/03 05:03:11;;;;;;;;;;;21.90;53.10;;;;;;4986671;28;98065;-58
2022/05/03 05:05:43;;;;;;;;;;;22.00;53.60;;;;;;4987857;28;96209;-61
2022/05/03 05:08:12;;;;;;;;;;;21.90;54.50;;;;;;4989614;28;95411;-62
2022/05/03 05:10:42;;;;;;;;;;;22.10;53.50;;;;;;4987763;28;96526;-59
2022/05/03 05:13:12;;;;;;;;;;;22.00;52.50;;;;;;4988269;28;95389;-59
2022/05/03 05:15:41;;;;;;;;;;;21.90;54.90;;;;;;4980789;28;95688;-59
2022/05/03 05:18:14;;;;;;;;;;;21.70;52.50;;;;;;4967198;28;96043;-59
2022/05/03 05:20:44;;;;;;;;;;;21.50;54.10;;;;;;4962006;28;96950;-60
2022/05/03 05:23:13;;;;;;;;;;;21.50;52.90;;;;;;4961744;28;95775;-60
2022/05/03 05:25:49;;;;;;;;;;;21.10;52.80;;;;;;4966419;28;95779;-60
2022/05/03 05:28:21;;;;;;;;;;;20.90;52.70;;;;;;4966911;28;95900;-61
2022/05/03 05:30:55;;;;;;;;;;;20.80;54.70;;;;;;4962488;28;96965;-60
2022/05/03 05:33:28;;;;;;;;;;;20.60;53.80;;;;;;4943094;28;98560;-61
2022/05/03 05:35:58;;;;;;;;;;;20.60;55.80;;;;;;4960418;28;95712;-60
2022/05/03 05:38:28;;;;;;;;;;;20.40;54.90;;;;;;4960749;28;96048;-60
2022/05/03 05:40:58;;;;;;;;;;;20.40;55.90;;;;;;4966849;28;95944;-61
2022/05/03 05:43:27;;;;;;;;;;;20.40;55.20;;;;;;4965013;28;95468;-60
2022/05/03 05:45:58;;;;;;;;;;;20.10;55.60;;;;;;4962216;28;98333;-60
2022/05/03 05:48:28;;;;;;;;;;;20.20;56.60;;;;;;4968654;28;96162;-60
2022/05/03 05:50:58;;;;;;;;;;;20.30;57.10;;;;;;4967770;28;95992;-60
2022/05/03 05:53:33;;;;;;;;;;;20.40;56.20;;;;;;4964651;28;95804;-61
2022/05/03 05:56:04;;;;;;;;;;;20.30;56.50;;;;;;4965519;28;95899;-61
2022/05/03 05:58:34;;;;;;;;;;;20.40;55.50;;;;;;4966368;28;96114;-60
2022/05/03 06:01:09;;;;;;;;;;;20.50;57.70;;;;;;4965734;28;95922;-60
2022/05/03 06:03:42;;;;;;;;;;;20.60;56.60;;;;;;4988324;28;95376;-60
2022/05/03 06:06:16;;;;;;;;;;;20.30;56.10;;;;;;4971035;28;95840;-62
2022/05/03 06:08:46;;;;;;;;;;;20.10;56.30;;;;;;4988203;28;95329;-60
2022/05/03 06:11:16;;;;;;;;;;;20.00;57.40;;;;;;4986737;28;98814;-59
2022/05/03 06:13:47;;;;;;;;;;;20.10;57.60;;;;;;4988170;28;96142;-59
2022/05/03 06:16:18;;;;;;;;;;;20.10;58.10;;;;;;4982796;28;97908;-59
2022/05/03 06:18:50;;;;;;;;;;;20.10;58.40;;;;;;4988259;28;95800;-60
2022/05/03 06:21:20;;;;;;;;;;;20.10;57.70;;;;;;4987558;28;96489;-61
2022/05/03 06:23:49;;;;;;;;;;;20.10;57.90;;;;;;4988160;28;96255;-66
2022/05/03 06:26:19;;;;;;;;;;;19.90;58.00;;;;;;4969814;28;95762;-64
2022/05/03 06:28:50;;;;;;;;;;;20.00;59.50;;;;;;4986675;28;96791;-63
2022/05/03 06:31:24;;;;;;;;;;;20.00;58.80;;;;;;4969711;28;96196;-61
2022/05/03 06:33:56;;;;;;;;;;;20.00;61.40;;;;;;4955982;28;95882;-63
2022/05/03 06:36:28;;;;;;;;;;;20.20;59.80;;;;;;4962817;28;95888;-61
2022/05/03 06:38:59;;;;;;;;;;;20.20;59.60;;;;;;4968108;28;96398;-65
2022/05/03 06:41:28;;;;;;;;;;;20.20;59.70;;;;;;4968110;28;95840;-62
2022/05/03 06:43:58;;;;;;;;;;;20.20;59.20;;;;;;4965414;28;95625;-61
2022/05/03 06:46:29;;;;;;;;;;;20.10;59.50;;;;;;4962820;28;95589;-62
2022/05/03 06:49:00;;;;;;;;;;;20.00;60.30;;;;;;4965472;28;95760;-60
2022/05/03 06:51:30;;;;;;;;;;;20.10;60.20;;;;;;4968450;28;95816;-60
2022/05/03 06:54:01;;;;;;;;;;;20.00;57.10;;;;;;4966968;28;96950;-62
2022/05/03 06:56:35;;;;;;;;;;;20.00;58.70;;;;;;4968837;28;96163;-63
2022/05/03 06:59:07;;;;;;;;;;;20.00;59.70;;;;;;4967509;28;96315;-59
2022/05/03 07:01:38;;;;;;;;;;;19.90;59.00;;;;;;4962397;28;95906;-61
2022/05/03 07:04:13;;;;;;;;;;;19.90;58.90;;;;;;4966751;28;96252;-61
2022/05/03 07:06:45;;;;;;;;;;;20.00;59.10;;;;;;4966058;28;95788;-64
2022/05/03 07:09:15;;;;;;;;;;;19.90;59.50;;;;;;4966257;28;95781;-63
2022/05/03 07:11:45;;;;;;;;;;;19.80;59.60;;;;;;4966999;28;95812;-60
2022/05/03 07:14:16;;;;;;;;;;;19.70;59.90;;;;;;4966298;28;98134;-62
2022/05/03 07:16:46;;;;;;;;;;;19.60;60.10;;;;;;4960840;28;96255;-62
2022/05/03 07:24:54;;;;;;;;;;;20.60;65.60;;;;;;4965881;28;95769;-63
2022/05/03 07:27:25;;;;;;;;;;;20.80;66.10;;;;;;4966843;28;95685;-56
2022/05/03 07:29:55;;;;;;;;;;;21.00;66.10;;;;;;4964343;28;95602;-64
2022/05/03 07:32:26;;;;;;;;;;;21.00;66.20;;;;;;4944696;28;95849;-64
2022/05/03 07:34:58;;;;;;;;;;;21.10;65.90;;;;;;4954371;28;96204;-66
2022/05/03 07:37:29;;;;;;;;;;;21.10;65.90;;;;;;4964719;28;95879;-62
2022/05/03 07:40:01;;;;;;;;;;;21.20;66.30;;;;;;4965307;28;96452;-59
2022/05/03 07:42:35;;;;;;;;;;;21.10;66.30;;;;;;4962996;28;95955;-58
2022/05/03 07:45:06;;;;;;;;;;;21.10;65.80;;;;;;4963551;28;95723;-60
2022/05/03 07:47:37;;;;;;;;;;;21.00;67.10;;;;;;4961365;28;96146;-59
2022/05/03 07:50:07;;;;;;;;;;;21.10;67.10;;;;;;4966011;28;95893;-60
2022/05/03 07:52:37;;;;;;;;;;;21.00;67.10;;;;;;4965188;28;96494;-59
2022/05/03 07:55:09;;;;;;;;;;;21.00;66.50;;;;;;4964349;28;95713;-58
2022/05/03 07:57:40;;;;;;;;;;;21.00;66.70;;;;;;4966287;28;95959;-59
2022/05/03 08:00:12;;;;;;;;;;;20.90;65.20;;;;;;4969634;28;95846;-58
2022/05/03 08:02:42;;;;;;;;;;;20.90;67.60;;;;;;4968345;28;95778;-61
2022/05/03 08:05:13;;;;;;;;;;;21.00;67.50;;;;;;4968823;28;96028;-59
2022/05/03 08:07:44;;;;;;;;;;;21.00;67.10;;;;;;4969942;28;96392;-59
2022/05/03 08:10:14;;;;;;;;;;;21.00;67.60;;;;;;4966988;28;95406;-59
2022/05/03 08:12:50;;;;;;;;;;;21.00;67.60;;;;;;4965088;28;96622;-58
2022/05/03 08:15:25;;;;;;;;;;;20.90;67.70;;;;;;4959945;28;95856;-59
2022/05/03 08:17:56;;;;;;;;;;;20.90;67.90;;;;;;4989680;28;96013;-58
2022/05/03 08:20:27;;;;;;;;;;;20.90;68.10;;;;;;4989794;28;96324;-58
2022/05/03 08:22:59;;;;;;;;;;;20.80;67.90;;;;;;4989630;28;97359;-57
2022/05/03 08:25:32;;;;;;;;;;;20.90;67.90;;;;;;4987504;28;95714;-60
2022/05/03 08:28:03;;;;;;;;;;;20.90;67.80;;;;;;4985791;28;95681;-58
2022/05/03 08:30:35;;;;;;;;;;;20.90;68.00;;;;;;4980923;28;95746;-58
2022/05/03 08:33:06;;;;;;;;;;;20.90;68.00;;;;;;4982200;28;95957;-59
2022/05/03 08:35:38;;;;;;;;;;;20.90;68.20;;;;;;4981588;28;96017;-58
2022/05/03 08:43:46;;;;;;;;;;;20.90;68.40;;;;;;4986609;28;97558;-58
2022/05/03 08:46:19;;;;;;;;;;;20.80;67.60;;;;;;4964195;28;96482;-58
2022/05/03 08:48:52;;;;;;;;;;;20.90;68.70;;;;;;4986401;28;95962;-58
2022/05/03 08:51:23;;;;;;;;;;;20.80;68.80;;;;;;4987359;28;95352;-59
2022/05/03 08:53:53;;;;;;;;;;;20.80;68.00;;;;;;4985602;28;96620;-59
2022/05/03 08:56:23;;;;;;;;;;;20.80;69.00;;;;;;4984218;28;97508;-58
2022/05/03 08:58:55;;;;;;;;;;;20.80;68.20;;;;;;4985020;28;96040;-59
2022/05/03 09:01:27;;;;;;;;;;;20.70;66.00;;;;;;5004273;23;95965;-57
2022/05/03 09:03:58;;;;;;;;;;;20.70;69.30;;;;;;4965098;28;95966;-58
2022/05/03 09:06:42;;;;;;;;;;;20.70;69.40;;;;;;4967229;28;96397;-59
2022/05/03 09:09:15;;;;;;;;;;;20.60;69.30;;;;;;4966266;28;95871;-58
2022/05/03 09:11:49;;;;;;;;;;;20.60;69.40;;;;;;4964276;28;95692;-56
2022/05/03 09:14:38;;;;;;;;;;;20.60;69.50;;;;;;4963681;28;96191;-58
2022/05/03 09:17:08;;;;;;;;;;;20.60;69.50;;;;;;4959033;28;96849;-58
2022/05/03 09:19:39;;;;;;;;;;;20.50;69.50;;;;;;4965079;28;96489;-58
2022/05/03 09:25:07;;;;;;;;;;;20.60;67.10;;;;;;4965022;28;96111;-58
2022/05/03 09:27:38;;;;;;;;;;;20.60;67.10;;;;;;4966216;28;95962;-57
2022/05/03 09:30:10;;;;;;;;;;;20.60;69.60;;;;;;4964460;28;95837;-58
2022/05/03 09:32:42;;;;;;;;;;;20.60;68.90;;;;;;5006376;22;96733;-58
2022/05/03 09:35:31;;;;;;;;;;;20.50;69.90;;;;;;4959204;28;96040;-58
2022/05/03 09:38:03;;;;;;;;;;;20.50;69.80;;;;;;4963457;28;95839;-63
2022/05/03 09:40:42;;;;;;;;;;;20.50;70.00;;;;;;4966306;28;95649;-58
2022/05/03 09:43:14;;;;;;;;;;;20.50;70.00;;;;;;4967388;28;95803;-58
2022/05/03 09:45:44;;;;;;;;;;;20.50;70.00;;;;;;4962519;28;95854;-58
2022/05/03 09:48:15;;;;;;;;;;;20.50;70.10;;;;;;4966868;28;98760;-58
2022/05/03 09:50:46;;;;;;;;;;;20.50;70.10;;;;;;4964706;28;95897;-59
2022/05/03 09:53:21;;;;;;;;;;;20.40;67.60;;;;;;4966391;28;97845;-57
2022/05/03 09:55:52;;;;;;;;;;;20.40;70.20;;;;;;4967263;28;96513;-58
2022/05/03 09:58:24;;;;;;;;;;;20.40;70.20;;;;;;4967474;28;95851;-58
2022/05/03 10:00:57;;;;;;;;;;;20.40;70.20;;;;;;4963735;28;96352;-58
2022/05/03 10:03:28;;;;;;;;;;;20.40;70.20;;;;;;4968080;28;95804;-58
2022/05/03 10:06:00;;;;;;;;;;;20.40;67.90;;;;;;4968064;28;96291;-59
2022/05/03 10:08:30;;;;;;;;;;;20.30;69.80;;;;;;4966095;28;96266;-61
2022/05/03 10:11:01;;;;;;;;;;;20.30;70.00;;;;;;4967134;28;95771;-58
2022/05/03 10:13:30;;;;;;;;;;;20.30;70.10;;;;;;4966902;28;95823;-58
2022/05/03 10:21:41;;;;;;;;;;;20.30;70.10;;;;;;4965077;28;95948;-58
2022/05/03 10:24:12;;;;;;;;;;;20.30;70.20;;;;;;4965361;28;95894;-59
2022/05/03 10:26:58;;;;;;;;;;;20.30;70.20;;;;;;4967180;28;95830;-59
2022/05/03 10:29:32;;;;;;;;;;;20.30;70.20;;;;;;4964970;28;97653;-58
2022/05/03 10:32:09;;;;;;;;;;;20.30;70.40;;;;;;4959480;28;95780;-58
2022/05/03 10:34:46;;;;;;;;;;;20.20;70.30;;;;;;4955293;28;95946;-58
2022/05/03 10:37:19;;;;;;;;;;;20.20;70.40;;;;;;4963794;28;96159;-59
2022/05/03 10:39:57;;;;;;;;;;;20.20;70.50;;;;;;4960474;28;96232;-59
2022/05/03 10:42:30;;;;;;;;;;;20.20;69.60;;;;;;4961579;28;96403;-58
2022/05/03 10:45:14;;;;;;;;;;;20.10;70.50;;;;;;4955405;28;95733;-67
2022/05/03 10:47:54;;;;;;;;;;;20.10;70.80;;;;;;4966088;28;98177;-61
2022/05/03 10:50:32;;;;;;;;;;;20.10;70.70;;;;;;4963548;28;95952;-63
2022/05/03 10:53:05;;;;;;;;;;;20.10;70.70;;;;;;4948461;28;95929;-63
2022/05/03 10:55:40;;;;;;;;;;;20.20;70.50;;;;;;4963977;28;95299;-63
2022/05/03 10:58:26;;;;;;;;;;;20.20;70.30;;;;;;4964445;28;96103;-63
2022/05/03 11:01:04;;;;;;;;;;;20.20;70.20;;;;;;4960931;28;95859;-63
2022/05/03 11:03:41;;;;;;;;;;;20.20;70.10;;;;;;4965695;28;95962;-59
2022/05/03 11:06:26;;;;;;;;;;;20.20;70.20;;;;;;4965059;28;96496;-61
2022/05/03 11:11:42;;;;;;;;;;;20.20;69.90;;;;;;4959087;28;95535;-61
2022/05/03 11:14:11;;;;;;;;;;;20.20;69.90;;;;;;4960502;28;95768;-60
2022/05/03 11:16:41;;;;;;;;;;;20.10;69.80;;;;;;4959017;28;95838;-60
2022/05/03 11:19:16;;;;;;;;;;;20.10;69.90;;;;;;4960260;28;97147;-60
2022/05/03 11:21:46;;;;;;;;;;;20.10;69.80;;;;;;4960959;28;95990;-60
2022/05/03 11:24:21;;;;;;;;;;;20.10;69.80;;;;;;4961327;28;96516;-59
2022/05/03 11:26:56;;;;;;;;;;;20.00;69.80;;;;;;4963538;28;95349;-59
2022/05/03 11:29:29;;;;;;;;;;;20.00;69.80;;;;;;4960416;28;95931;-60
2022/05/03 11:32:00;;;;;;;;;;;19.90;69.70;;;;;;4956140;28;95889;-60
2022/05/03 11:34:31;;;;;;;;;;;19.90;69.70;;;;;;4949604;28;97868;-60
2022/05/03 11:37:03;;;;;;;;;;;19.90;69.80;;;;;;4961743;28;95767;-60
2022/05/03 11:39:36;;;;;;;;;;;19.90;69.70;;;;;;4962276;28;96437;-60
2022/05/03 11:42:10;;;;;;;;;;;19.90;69.70;;;;;;4962166;28;95486;-59
2022/05/03 11:44:43;;;;;;;;;;;19.90;69.70;;;;;;4959568;28;95936;-59
2022/05/03 11:47:15;;;;;;;;;;;19.80;67.30;;;;;;4957586;28;95787;-60
2022/05/03 11:49:44;;;;;;;;;;;19.80;69.80;;;;;;4961581;28;96494;-60
2022/05/03 11:57:56;;;;;;;;;;;19.70;69.80;;;;;;4964917;28;95705;-60
2022/05/03 12:00:43;;;;;;;;;;;19.70;69.80;;;;;;4958890;28;96750;-62
2022/05/03 12:03:14;;;;;;;;;;;19.70;69.80;;;;;;4964188;28;96513;-65
2022/05/03 12:05:59;;;;;;;;;;;19.80;70.30;;;;;;4966553;28;95690;-65
2022/05/03 12:08:30;;;;;;;;;;;19.90;70.30;;;;;;4968557;28;95214;-64
2022/05/03 12:10:59;;;;;;;;;;;20.10;70.10;;;;;;4966861;28;95870;-65
2022/05/03 12:13:30;;;;;;;;;;;20.20;69.80;;;;;;4967808;28;95910;-66
2022/05/03 12:16:00;;;;;;;;;;;20.40;69.70;;;;;;4937731;28;95514;-64
2022/05/03 12:18:33;;;;;;;;;;;20.50;69.40;;;;;;4968486;28;95849;-65
2022/05/03 12:21:06;;;;;;;;;;;20.70;69.30;;;;;;4967963;28;95863;-64
2022/05/03 12:23:39;;;;;;;;;;;20.80;69.10;;;;;;4967287;28;96403;-63
2022/05/03 12:26:14;;;;;;;;;;;20.80;68.80;;;;;;4968889;28;96721;-65
2022/05/03 12:28:45;;;;;;;;;;;21.00;66.70;;;;;;4969061;28;95751;-65
2022/05/03 12:31:18;;;;;;;;;;;21.10;68.50;;;;;;4965327;28;96047;-65
2022/05/03 12:33:54;;;;;;;;;;;21.20;68.20;;;;;;4942582;28;96757;-66
2022/05/03 12:36:44;;;;;;;;;;;21.20;68.10;;;;;;4947090;28;96098;-65
2022/05/03 12:39:16;;;;;;;;;;;21.30;68.00;;;;;;4966326;28;96031;-68
2022/05/03 12:42:02;;;;;;;;;;;21.40;67.90;;;;;;4949524;28;96443;-64
2022/05/03 12:44:46;;;;;;;;;;;21.50;67.90;;;;;;4967142;28;95838;-64
2022/05/03 12:47:19;;;;;;;;;;;21.60;67.60;;;;;;4969126;28;95863;-62
2022/05/03 12:49:52;;;;;;;;;;;21.60;67.60;;;;;;4948191;28;95367;-67
2022/05/03 12:52:28;;;;;;;;;;;21.70;67.10;;;;;;4965476;28;95847;-64
2022/05/03 12:55:01;;;;;;;;;;;21.70;67.40;;;;;;4965990;28;95360;-63
2022/05/03 13:00:28;;;;;;;;;;;21.80;67.20;;;;;;4963746;28;95114;-62
2022/05/03 13:03:01;;;;;;;;;;;21.90;67.20;;;;;;4962143;28;94948;-63
2022/05/03 13:05:34;;;;;;;;;;;21.90;67.20;;;;;;4962973;28;95778;-62
2022/05/03 13:08:05;;;;;;;;;;;22.00;67.20;;;;;;4963701;28;95039;-61
2022/05/03 13:10:38;;;;;;;;;;;22.10;67.10;;;;;;4963815;28;95191;-64
2022/05/03 13:13:09;;;;;;;;;;;22.00;67.00;;;;;;4962455;28;95914;-63
2022/05/03 13:15:41;;;;;;;;;;;22.10;66.90;;;;;;4962905;28;95442;-61
2022/05/03 13:18:12;;;;;;;;;;;22.20;65.80;;;;;;4964265;28;94905;-67
2022/05/03 13:20:44;;;;;;;;;;;22.10;66.20;;;;;;4963186;28;95259;-63
2022/05/03 13:23:16;;;;;;;;;;;22.20;66.40;;;;;;4961750;28;98269;-64
2022/05/03 13:25:47;;;;;;;;;;;22.30;66.30;;;;;;4964382;28;95943;-68
2022/05/03 13:28:19;;;;;;;;;;;22.40;66.30;;;;;;4964627;28;94960;-63
2022/05/03 13:30:50;;;;;;;;;;;22.40;66.10;;;;;;4964048;28;95239;-68
2022/05/03 13:33:23;;;;;;;;;;;22.60;66.10;;;;;;4962754;28;95939;-62
2022/05/03 13:41:58;;;;;;;;;;;22.00;64.50;;;;;;4964008;28;95183;-62
2022/05/03 13:44:30;;;;;;;;;;;21.80;64.80;;;;;;4963448;28;96525;-62
2022/05/03 13:47:04;;;;;;;;;;;21.70;65.00;;;;;;4963581;28;95283;-63
2022/05/03 13:49:35;;;;;;;;;;;21.60;65.10;;;;;;4964622;28;95218;-63
2022/05/03 13:52:10;;;;;;;;;;;21.60;65.30;;;;;;4965759;28;95234;-64
2022/05/03 13:54:42;;;;;;;;;;;21.50;63.20;;;;;;4964726;28;95867;-62
2022/05/03 13:57:14;;;;;;;;;;;21.40;65.30;;;;;;4964475;28;95288;-62
2022/05/03 13:59:46;;;;;;;;;;;21.30;65.50;;;;;;4964641;28;94911;-62
2022/05/03 14:02:18;;;;;;;;;;;21.30;64.80;;;;;;4963498;28;95069;-62
2022/05/03 14:04:50;;;;;;;;;;;21.20;65.90;;;;;;4964281;28;95729;-62
2022/05/03 14:07:22;;;;;;;;;;;21.10;66.10;;;;;;4964163;28;95403;-62
2022/05/03 14:09:55;;;;;;;;;;;21.10;66.20;;;;;;4964393;28;95023;-62
2022/05/03 14:12:25;;;;;;;;;;;21.00;66.70;;;;;;4964319;28;95095;-62
2022/05/03 14:14:56;;;;;;;;;;;21.10;66.90;;;;;;4963763;28;95875;-63
2022/05/03 14:17:30;;;;;;;;;;;21.00;66.50;;;;;;4962050;28;95292;-62
2022/05/03 14:20:03;;;;;;;;;;;21.00;66.40;;;;;;4946498;28;95111;-62
2022/05/03 14:22:36;;;;;;;;;;;21.00;66.40;;;;;;4964137;28;94808;-63
2022/05/03 14:25:10;;;;;;;;;;;21.00;66.40;;;;;;4963570;28;95049;-63
2022/05/03 14:27:42;;;;;;;;;;;21.00;66.30;;;;;;4963507;28;95463;-63
2022/05/03 14:30:13;;;;;;;;;;;21.00;66.30;;;;;;4963548;28;94942;-63
2022/05/03 14:32:48;;;;;;;;;;;20.90;66.40;;;;;;4962375;28;95139;-64
2022/05/03 14:35:19;;;;;;;;;;;20.90;66.60;;;;;;4962301;28;96306;-66
2022/05/03 14:37:51;;;;;;;;;;;20.90;67.00;;;;;;4945058;28;97066;-66
2022/05/03 14:40:24;;;;;;;;;;;21.00;67.80;;;;;;4963476;28;95003;-63
2022/05/03 14:42:55;;;;;;;;;;;21.00;67.30;;;;;;4945027;28;95126;-65
2022/05/03 14:45:27;;;;;;;;;;;21.10;67.40;;;;;;4962462;28;96365;-64
2022/05/03 14:48:01;;;;;;;;;;;21.20;67.40;;;;;;4962588;28;95107;-66
2022/05/03 14:50:33;;;;;;;;;;;21.20;67.30;;;;;;4964679;28;94971;-63
2022/05/03 14:53:04;;;;;;;;;;;21.30;67.30;;;;;;4963927;28;95283;-66
2022/05/03 14:55:37;;;;;;;;;;;21.20;66.80;;;;;;4963468;28;94898;-61
2022/05/03 15:04:01;;;;;;;;;;;20.60;67.80;;;;;;4961741;28;95162;-62
2022/05/03 15:06:34;;;;;;;;;;;20.50;68.20;;;;;;4960321;28;96361;-62
2022/05/03 15:09:05;;;;;;;;;;;20.40;68.60;;;;;;4960659;28;95292;-63
2022/05/03 15:11:36;;;;;;;;;;;20.30;69.40;;;;;;4960494;28;94943;-62
2022/05/03 15:14:06;;;;;;;;;;;20.20;68.90;;;;;;4961082;28;95108;-62
2022/05/03 15:16:38;;;;;;;;;;;20.10;69.20;;;;;;4959718;28;96490;-62
2022/05/03 15:19:09;;;;;;;;;;;20.10;70.20;;;;;;4942007;28;95087;-62
2022/05/03 15:21:40;;;;;;;;;;;20.00;69.70;;;;;;4960247;28;94942;-62
2022/05/03 15:27:06;;;;;;;;;;;19.90;70.00;;;;;;4960213;28;95764;-63
2022/05/03 15:29:41;;;;;;;;;;;19.90;70.10;;;;;;4959906;28;95181;-63
2022/05/03 15:32:27;;;;;;;;;;;19.80;67.90;;;;;;4940847;28;95223;-64
2022/05/03 15:35:10;;;;;;;;;;;19.70;70.50;;;;;;4941555;28;95439;-62
2022/05/03 15:37:47;;;;;;;;;;;19.70;70.70;;;;;;4960133;28;95932;-63
2022/05/03 15:40:24;;;;;;;;;;;19.60;70.90;;;;;;4959967;28;94937;-62
2022/05/03 15:42:56;;;;;;;;;;;19.60;71.00;;;;;;4942723;28;95095;-62
2022/05/03 15:45:30;;;;;;;;;;;19.50;71.10;;;;;;4960597;28;95155;-62